sensor_id;sensor_type;location;lat;lon;timestamp;P1;durP1;ratioP1;P2;durP2;ratioP2
71288;SDS011;59068;52.502;9.860;2023-05-20T00:01:04;1.23;;;1.07;;
71288;SDS011;59068;52.502;9.860;2023-05-20T00:03:31;2.30;;;1.63;;
71288;SDS011;59068;52.502;9.860;2023-05-20T00:05:57;1.07;;;1.07;;
71288;SDS011;59068;52.502;9.860;2023-05-20T00:08:25;2.27;;;1.40;;
71288;SDS011;59068;52.502;9.860;2023-05-20T00:10:52;1.47;;;1.10;;
71288;SDS011;59068;52.502;9.860;2023-05-20T00:13:18;2.13;;;1.00;;
71288;SDS011;59068;52.502;9.860;2023-05-20T00:15:45;1.87;;;1.20;;
71288;SDS011;59068;52.502;9.860;2023-05-20T00:18:12;1.63;;;1.10;;
71288;SDS011;59068;52.502;9.860;2023-05-20T00:20:38;1.07;;;0.87;;
71288;SDS011;59068;52.502;9.860;2023-05-20T00:23:04;1.20;;;1.13;;
71288;SDS011;59068;52.502;9.860;2023-05-20T00:25:31;1.73;;;1.10;;
71288;SDS011;59068;52.502;9.860;2023-05-20T00:27:58;1.43;;;1.00;;
71288;SDS011;59068;52.502;9.860;2023-05-20T00:30:24;1.63;;;1.00;;
71288;SDS011;59068;52.502;9.860;2023-05-20T00:32:50;1.43;;;0.97;;
71288;SDS011;59068;52.502;9.860;2023-05-20T00:35:16;2.70;;;1.10;;
71288;SDS011;59068;52.502;9.860;2023-05-20T00:37:42;1.60;;;1.00;;
71288;SDS011;59068;52.502;9.860;2023-05-20T00:40:09;1.33;;;1.00;;
71288;SDS011;59068;52.502;9.860;2023-05-20T00:42:36;1.77;;;1.07;;
71288;SDS011;59068;52.502;9.860;2023-05-20T00:45:01;1.17;;;0.83;;
71288;SDS011;59068;52.502;9.860;2023-05-20T00:47:29;2.60;;;1.00;;
71288;SDS011;59068;52.502;9.860;2023-05-20T00:49:59;5.27;;;1.17;;
71288;SDS011;59068;52.502;9.860;2023-05-20T00:52:26;1.90;;;1.20;;
71288;SDS011;59068;52.502;9.860;2023-05-20T00:54:54;3.03;;;1.20;;
71288;SDS011;59068;52.502;9.860;2023-05-20T00:57:21;2.40;;;1.20;;
71288;SDS011;59068;52.502;9.860;2023-05-20T00:59:47;1.40;;;0.90;;
71288;SDS011;59068;52.502;9.860;2023-05-20T01:02:13;1.97;;;0.90;;
71288;SDS011;59068;52.502;9.860;2023-05-20T01:04:40;1.23;;;0.80;;
71288;SDS011;59068;52.502;9.860;2023-05-20T01:07:12;0.87;;;0.80;;
71288;SDS011;59068;52.502;9.860;2023-05-20T01:09:40;2.27;;;0.97;;
71288;SDS011;59068;52.502;9.860;2023-05-20T01:12:11;1.10;;;1.00;;
71288;SDS011;59068;52.502;9.860;2023-05-20T01:17:45;0.87;;;0.77;;
71288;SDS011;59068;52.502;9.860;2023-05-20T01:20:13;1.50;;;0.83;;
71288;SDS011;59068;52.502;9.860;2023-05-20T01:25:24;2.33;;;1.00;;
71288;SDS011;59068;52.502;9.860;2023-05-20T01:27:50;6.57;;;1.47;;
71288;SDS011;59068;52.502;9.860;2023-05-20T01:30:17;1.20;;;0.90;;
71288;SDS011;59068;52.502;9.860;2023-05-20T01:32:50;0.83;;;0.83;;
71288;SDS011;59068;52.502;9.860;2023-05-20T01:35:21;1.00;;;0.90;;
71288;SDS011;59068;52.502;9.860;2023-05-20T01:37:48;2.33;;;1.20;;
71288;SDS011;59068;52.502;9.860;2023-05-20T01:40:16;1.20;;;1.10;;
71288;SDS011;59068;52.502;9.860;2023-05-20T01:42:42;0.80;;;0.80;;
71288;SDS011;59068;52.502;9.860;2023-05-20T01:45:09;2.00;;;0.87;;
71288;SDS011;59068;52.502;9.860;2023-05-20T01:47:35;1.80;;;1.00;;
71288;SDS011;59068;52.502;9.860;2023-05-20T01:50:01;1.20;;;1.00;;
71288;SDS011;59068;52.502;9.860;2023-05-20T01:52:28;0.90;;;0.90;;
71288;SDS011;59068;52.502;9.860;2023-05-20T01:54:57;2.77;;;1.00;;
71288;SDS011;59068;52.502;9.860;2023-05-20T01:57:23;2.07;;;0.70;;
71288;SDS011;59068;52.502;9.860;2023-05-20T01:59:49;1.60;;;0.90;;
71288;SDS011;59068;52.502;9.860;2023-05-20T02:02:16;1.57;;;0.80;;
71288;SDS011;59068;52.502;9.860;2023-05-20T02:04:42;2.07;;;1.10;;
71288;SDS011;59068;52.502;9.860;2023-05-20T02:07:13;2.30;;;1.17;;
71288;SDS011;59068;52.502;9.860;2023-05-20T02:09:40;0.80;;;0.80;;
71288;SDS011;59068;52.502;9.860;2023-05-20T02:12:07;2.17;;;1.17;;
71288;SDS011;59068;52.502;9.860;2023-05-20T02:14:35;0.80;;;0.80;;
71288;SDS011;59068;52.502;9.860;2023-05-20T02:17:02;1.17;;;1.10;;
71288;SDS011;59068;52.502;9.860;2023-05-20T02:19:28;1.77;;;1.00;;
71288;SDS011;59068;52.502;9.860;2023-05-20T02:21:55;0.80;;;0.80;;
71288;SDS011;59068;52.502;9.860;2023-05-20T02:24:22;2.47;;;0.90;;
71288;SDS011;59068;52.502;9.860;2023-05-20T02:26:47;1.00;;;0.90;;
71288;SDS011;59068;52.502;9.860;2023-05-20T02:29:16;1.43;;;0.97;;
71288;SDS011;59068;52.502;9.860;2023-05-20T02:31:42;1.03;;;0.90;;
71288;SDS011;59068;52.502;9.860;2023-05-20T02:34:08;1.70;;;1.03;;
71288;SDS011;59068;52.502;9.860;2023-05-20T02:36:35;1.17;;;0.83;;
71288;SDS011;59068;52.502;9.860;2023-05-20T02:39:02;1.47;;;1.20;;
71288;SDS011;59068;52.502;9.860;2023-05-20T02:41:29;1.10;;;1.00;;
71288;SDS011;59068;52.502;9.860;2023-05-20T02:43:55;0.97;;;0.70;;
71288;SDS011;59068;52.502;9.860;2023-05-20T02:46:22;0.90;;;0.83;;
71288;SDS011;59068;52.502;9.860;2023-05-20T02:48:47;1.70;;;0.80;;
71288;SDS011;59068;52.502;9.860;2023-05-20T02:51:13;1.33;;;1.03;;
71288;SDS011;59068;52.502;9.860;2023-05-20T02:53:40;0.77;;;0.73;;
71288;SDS011;59068;52.502;9.860;2023-05-20T02:56:06;1.57;;;1.00;;
71288;SDS011;59068;52.502;9.860;2023-05-20T02:58:34;3.57;;;1.10;;
71288;SDS011;59068;52.502;9.860;2023-05-20T03:01:01;0.80;;;0.77;;
71288;SDS011;59068;52.502;9.860;2023-05-20T03:03:26;2.23;;;0.80;;
71288;SDS011;59068;52.502;9.860;2023-05-20T03:05:53;2.97;;;0.90;;
71288;SDS011;59068;52.502;9.860;2023-05-20T03:08:20;1.23;;;0.90;;
71288;SDS011;59068;52.502;9.860;2023-05-20T03:10:47;1.00;;;0.80;;
71288;SDS011;59068;52.502;9.860;2023-05-20T03:13:14;1.80;;;0.80;;
71288;SDS011;59068;52.502;9.860;2023-05-20T03:15:44;0.80;;;0.80;;
71288;SDS011;59068;52.502;9.860;2023-05-20T03:18:11;1.40;;;1.00;;
71288;SDS011;59068;52.502;9.860;2023-05-20T03:20:39;1.30;;;0.90;;
71288;SDS011;59068;52.502;9.860;2023-05-20T03:23:06;0.97;;;0.80;;
71288;SDS011;59068;52.502;9.860;2023-05-20T03:25:32;1.50;;;1.00;;
71288;SDS011;59068;52.502;9.860;2023-05-20T03:27:58;0.90;;;0.90;;
71288;SDS011;59068;52.502;9.860;2023-05-20T03:30:25;0.90;;;0.90;;
71288;SDS011;59068;52.502;9.860;2023-05-20T03:32:51;1.07;;;1.00;;
71288;SDS011;59068;52.502;9.860;2023-05-20T03:35:18;1.43;;;0.80;;
71288;SDS011;59068;52.502;9.860;2023-05-20T03:37:44;4.20;;;1.10;;
71288;SDS011;59068;52.502;9.860;2023-05-20T03:40:10;1.43;;;0.63;;
71288;SDS011;59068;52.502;9.860;2023-05-20T03:42:36;1.27;;;0.80;;
71288;SDS011;59068;52.502;9.860;2023-05-20T03:45:03;0.83;;;0.70;;
71288;SDS011;59068;52.502;9.860;2023-05-20T03:47:30;1.37;;;1.10;;
71288;SDS011;59068;52.502;9.860;2023-05-20T03:49:55;1.33;;;0.90;;
71288;SDS011;59068;52.502;9.860;2023-05-20T03:52:22;1.23;;;0.90;;
71288;SDS011;59068;52.502;9.860;2023-05-20T03:54:47;1.23;;;1.10;;
71288;SDS011;59068;52.502;9.860;2023-05-20T03:57:14;1.57;;;1.00;;
71288;SDS011;59068;52.502;9.860;2023-05-20T03:59:39;2.07;;;0.90;;
71288;SDS011;59068;52.502;9.860;2023-05-20T04:02:06;2.30;;;0.90;;
71288;SDS011;59068;52.502;9.860;2023-05-20T04:04:34;1.57;;;0.93;;
71288;SDS011;59068;52.502;9.860;2023-05-20T04:07:00;1.00;;;0.80;;
71288;SDS011;59068;52.502;9.860;2023-05-20T04:09:26;2.00;;;1.07;;
71288;SDS011;59068;52.502;9.860;2023-05-20T04:11:52;1.10;;;1.00;;
71288;SDS011;59068;52.502;9.860;2023-05-20T04:14:18;1.00;;;0.80;;
71288;SDS011;59068;52.502;9.860;2023-05-20T04:16:45;1.10;;;1.00;;
71288;SDS011;59068;52.502;9.860;2023-05-20T04:19:11;1.83;;;1.03;;
71288;SDS011;59068;52.502;9.860;2023-05-20T04:21:38;1.53;;;0.90;;
71288;SDS011;59068;52.502;9.860;2023-05-20T04:24:04;3.13;;;0.93;;
71288;SDS011;59068;52.502;9.860;2023-05-20T04:26:32;1.67;;;1.10;;
71288;SDS011;59068;52.502;9.860;2023-05-20T04:29:01;0.97;;;0.90;;
71288;SDS011;59068;52.502;9.860;2023-05-20T04:31:28;2.63;;;0.80;;
71288;SDS011;59068;52.502;9.860;2023-05-20T04:33:56;1.17;;;1.00;;
71288;SDS011;59068;52.502;9.860;2023-05-20T04:36:22;1.70;;;0.90;;
71288;SDS011;59068;52.502;9.860;2023-05-20T04:38:57;0.87;;;0.83;;
71288;SDS011;59068;52.502;9.860;2023-05-20T04:41:23;1.20;;;1.00;;
71288;SDS011;59068;52.502;9.860;2023-05-20T04:43:49;1.40;;;1.00;;
71288;SDS011;59068;52.502;9.860;2023-05-20T04:46:16;1.30;;;1.00;;
71288;SDS011;59068;52.502;9.860;2023-05-20T04:48:41;1.33;;;0.90;;
71288;SDS011;59068;52.502;9.860;2023-05-20T04:51:08;0.83;;;0.80;;
71288;SDS011;59068;52.502;9.860;2023-05-20T04:53:35;3.90;;;1.17;;
71288;SDS011;59068;52.502;9.860;2023-05-20T04:56:02;1.27;;;1.10;;
71288;SDS011;59068;52.502;9.860;2023-05-20T04:58:29;2.00;;;1.20;;
71288;SDS011;59068;52.502;9.860;2023-05-20T05:00:56;1.70;;;1.00;;
71288;SDS011;59068;52.502;9.860;2023-05-20T05:03:23;1.97;;;0.93;;
71288;SDS011;59068;52.502;9.860;2023-05-20T05:05:54;2.00;;;0.93;;
71288;SDS011;59068;52.502;9.860;2023-05-20T05:08:22;2.97;;;1.10;;
71288;SDS011;59068;52.502;9.860;2023-05-20T05:10:52;2.07;;;1.10;;
71288;SDS011;59068;52.502;9.860;2023-05-20T05:13:18;1.43;;;1.33;;
71288;SDS011;59068;52.502;9.860;2023-05-20T05:15:44;1.40;;;1.03;;
71288;SDS011;59068;52.502;9.860;2023-05-20T05:18:11;3.17;;;1.20;;
71288;SDS011;59068;52.502;9.860;2023-05-20T05:20:37;1.47;;;0.90;;
71288;SDS011;59068;52.502;9.860;2023-05-20T05:23:03;2.57;;;1.40;;
71288;SDS011;59068;52.502;9.860;2023-05-20T05:25:29;2.77;;;1.30;;
71288;SDS011;59068;52.502;9.860;2023-05-20T05:27:55;1.87;;;1.40;;
71288;SDS011;59068;52.502;9.860;2023-05-20T05:30:20;1.17;;;1.10;;
71288;SDS011;59068;52.502;9.860;2023-05-20T05:32:49;1.67;;;1.23;;
71288;SDS011;59068;52.502;9.860;2023-05-20T05:35:14;3.03;;;1.10;;
71288;SDS011;59068;52.502;9.860;2023-05-20T05:37:40;1.70;;;1.40;;
71288;SDS011;59068;52.502;9.860;2023-05-20T05:40:07;2.17;;;1.47;;
71288;SDS011;59068;52.502;9.860;2023-05-20T05:42:34;1.40;;;1.30;;
71288;SDS011;59068;52.502;9.860;2023-05-20T05:45:01;3.50;;;1.53;;
71288;SDS011;59068;52.502;9.860;2023-05-20T05:47:27;2.57;;;1.40;;
71288;SDS011;59068;52.502;9.860;2023-05-20T05:49:58;2.23;;;1.60;;
71288;SDS011;59068;52.502;9.860;2023-05-20T05:52:25;3.87;;;1.57;;
71288;SDS011;59068;52.502;9.860;2023-05-20T05:54:52;2.47;;;1.33;;
71288;SDS011;59068;52.502;9.860;2023-05-20T05:57:19;2.57;;;1.47;;
71288;SDS011;59068;52.502;9.860;2023-05-20T05:59:46;3.13;;;1.63;;
71288;SDS011;59068;52.502;9.860;2023-05-20T06:02:11;1.67;;;1.57;;
71288;SDS011;59068;52.502;9.860;2023-05-20T06:04:39;2.30;;;1.73;;
71288;SDS011;59068;52.502;9.860;2023-05-20T06:07:06;4.13;;;2.60;;
71288;SDS011;59068;52.502;9.860;2023-05-20T06:09:32;4.47;;;2.37;;
71288;SDS011;59068;52.502;9.860;2023-05-20T06:11:58;5.50;;;2.10;;
71288;SDS011;59068;52.502;9.860;2023-05-20T06:14:25;5.30;;;1.93;;
71288;SDS011;59068;52.502;9.860;2023-05-20T06:16:50;2.53;;;1.60;;
71288;SDS011;59068;52.502;9.860;2023-05-20T06:19:16;2.17;;;1.67;;
71288;SDS011;59068;52.502;9.860;2023-05-20T06:21:42;1.97;;;1.70;;
71288;SDS011;59068;52.502;9.860;2023-05-20T06:24:08;1.97;;;1.60;;
71288;SDS011;59068;52.502;9.860;2023-05-20T06:26:34;2.33;;;1.70;;
71288;SDS011;59068;52.502;9.860;2023-05-20T06:29:01;2.83;;;2.10;;
71288;SDS011;59068;52.502;9.860;2023-05-20T06:31:27;2.07;;;1.83;;
71288;SDS011;59068;52.502;9.860;2023-05-20T06:33:55;3.60;;;2.13;;
71288;SDS011;59068;52.502;9.860;2023-05-20T06:36:20;2.50;;;1.93;;
71288;SDS011;59068;52.502;9.860;2023-05-20T06:38:46;3.80;;;2.17;;
71288;SDS011;59068;52.502;9.860;2023-05-20T06:41:12;3.90;;;2.20;;
71288;SDS011;59068;52.502;9.860;2023-05-20T06:43:39;3.37;;;2.20;;
71288;SDS011;59068;52.502;9.860;2023-05-20T06:46:05;2.17;;;2.00;;
71288;SDS011;59068;52.502;9.860;2023-05-20T06:48:30;4.43;;;2.30;;
71288;SDS011;59068;52.502;9.860;2023-05-20T06:50:56;2.77;;;2.30;;
71288;SDS011;59068;52.502;9.860;2023-05-20T06:53:23;1.93;;;1.73;;
71288;SDS011;59068;52.502;9.860;2023-05-20T06:55:49;3.23;;;1.83;;
71288;SDS011;59068;52.502;9.860;2023-05-20T06:58:16;2.47;;;2.03;;
71288;SDS011;59068;52.502;9.860;2023-05-20T07:00:42;3.03;;;2.00;;
71288;SDS011;59068;52.502;9.860;2023-05-20T07:03:08;2.40;;;1.97;;
71288;SDS011;59068;52.502;9.860;2023-05-20T07:05:35;4.47;;;2.27;;
71288;SDS011;59068;52.502;9.860;2023-05-20T07:08:00;1.90;;;1.70;;
71288;SDS011;59068;52.502;9.860;2023-05-20T07:10:26;3.73;;;2.00;;
71288;SDS011;59068;52.502;9.860;2023-05-20T07:12:52;2.60;;;1.67;;
71288;SDS011;59068;52.502;9.860;2023-05-20T07:15:18;2.17;;;1.60;;
71288;SDS011;59068;52.502;9.860;2023-05-20T07:17:45;2.33;;;1.70;;
71288;SDS011;59068;52.502;9.860;2023-05-20T07:20:12;1.77;;;1.67;;
71288;SDS011;59068;52.502;9.860;2023-05-20T07:22:37;4.70;;;1.70;;
71288;SDS011;59068;52.502;9.860;2023-05-20T07:25:04;1.97;;;1.80;;
71288;SDS011;59068;52.502;9.860;2023-05-20T07:27:30;3.47;;;1.83;;
71288;SDS011;59068;52.502;9.860;2023-05-20T07:29:55;2.80;;;1.53;;
71288;SDS011;59068;52.502;9.860;2023-05-20T07:32:23;4.07;;;1.90;;
71288;SDS011;59068;52.502;9.860;2023-05-20T07:34:48;5.20;;;1.80;;
71288;SDS011;59068;52.502;9.860;2023-05-20T07:37:15;3.67;;;1.97;;
71288;SDS011;59068;52.502;9.860;2023-05-20T07:39:42;1.93;;;1.73;;
71288;SDS011;59068;52.502;9.860;2023-05-20T07:42:08;5.17;;;2.17;;
71288;SDS011;59068;52.502;9.860;2023-05-20T07:44:36;1.90;;;1.70;;
71288;SDS011;59068;52.502;9.860;2023-05-20T07:47:01;1.93;;;1.70;;
71288;SDS011;59068;52.502;9.860;2023-05-20T07:49:28;2.20;;;1.70;;
71288;SDS011;59068;52.502;9.860;2023-05-20T07:51:55;2.10;;;1.90;;
71288;SDS011;59068;52.502;9.860;2023-05-20T07:54:22;2.70;;;1.80;;
71288;SDS011;59068;52.502;9.860;2023-05-20T07:56:47;4.17;;;2.20;;
71288;SDS011;59068;52.502;9.860;2023-05-20T07:59:14;55.60;;;10.53;;
71288;SDS011;59068;52.502;9.860;2023-05-20T08:01:41;71.03;;;15.13;;
71288;SDS011;59068;52.502;9.860;2023-05-20T08:04:07;34.00;;;6.53;;
71288;SDS011;59068;52.502;9.860;2023-05-20T08:06:33;5.93;;;2.87;;
71288;SDS011;59068;52.502;9.860;2023-05-20T08:09:01;6.33;;;2.70;;
71288;SDS011;59068;52.502;9.860;2023-05-20T08:11:28;2.60;;;2.03;;
71288;SDS011;59068;52.502;9.860;2023-05-20T08:13:54;4.47;;;1.97;;
71288;SDS011;59068;52.502;9.860;2023-05-20T08:16:21;4.77;;;1.87;;
71288;SDS011;59068;52.502;9.860;2023-05-20T08:18:46;3.13;;;1.60;;
71288;SDS011;59068;52.502;9.860;2023-05-20T08:21:13;3.07;;;1.80;;
71288;SDS011;59068;52.502;9.860;2023-05-20T08:23:41;3.73;;;2.30;;
71288;SDS011;59068;52.502;9.860;2023-05-20T08:26:08;3.57;;;1.93;;
71288;SDS011;59068;52.502;9.860;2023-05-20T08:28:34;1.50;;;1.40;;
71288;SDS011;59068;52.502;9.860;2023-05-20T08:31:01;1.63;;;1.53;;
71288;SDS011;59068;52.502;9.860;2023-05-20T08:33:28;3.83;;;1.53;;
71288;SDS011;59068;52.502;9.860;2023-05-20T08:35:55;2.37;;;1.80;;
71288;SDS011;59068;52.502;9.860;2023-05-20T08:38:21;2.87;;;1.47;;
71288;SDS011;59068;52.502;9.860;2023-05-20T08:40:54;2.40;;;1.73;;
71288;SDS011;59068;52.502;9.860;2023-05-20T08:43:25;3.43;;;1.50;;
71288;SDS011;59068;52.502;9.860;2023-05-20T08:45:51;2.37;;;2.17;;
71288;SDS011;59068;52.502;9.860;2023-05-20T08:48:18;2.90;;;1.23;;
71288;SDS011;59068;52.502;9.860;2023-05-20T08:50:45;1.47;;;1.30;;
71288;SDS011;59068;52.502;9.860;2023-05-20T08:53:14;2.23;;;1.50;;
71288;SDS011;59068;52.502;9.860;2023-05-20T08:55:51;2.97;;;1.40;;
71288;SDS011;59068;52.502;9.860;2023-05-20T08:58:20;1.37;;;1.27;;
71288;SDS011;59068;52.502;9.860;2023-05-20T09:00:48;2.00;;;1.60;;
71288;SDS011;59068;52.502;9.860;2023-05-20T09:03:16;2.20;;;1.30;;
71288;SDS011;59068;52.502;9.860;2023-05-20T09:05:43;4.53;;;1.60;;
71288;SDS011;59068;52.502;9.860;2023-05-20T09:08:10;2.13;;;1.40;;
71288;SDS011;59068;52.502;9.860;2023-05-20T09:10:38;2.20;;;1.30;;
71288;SDS011;59068;52.502;9.860;2023-05-20T09:13:05;2.20;;;1.60;;
71288;SDS011;59068;52.502;9.860;2023-05-20T09:15:33;1.50;;;1.37;;
71288;SDS011;59068;52.502;9.860;2023-05-20T09:17:59;1.50;;;1.40;;
71288;SDS011;59068;52.502;9.860;2023-05-20T09:20:32;2.73;;;1.30;;
71288;SDS011;59068;52.502;9.860;2023-05-20T09:23:02;2.73;;;1.43;;
71288;SDS011;59068;52.502;9.860;2023-05-20T09:25:30;2.67;;;1.60;;
71288;SDS011;59068;52.502;9.860;2023-05-20T09:27:56;1.73;;;1.50;;
71288;SDS011;59068;52.502;9.860;2023-05-20T09:30:23;2.40;;;1.57;;
71288;SDS011;59068;52.502;9.860;2023-05-20T09:32:55;1.73;;;1.43;;
71288;SDS011;59068;52.502;9.860;2023-05-20T09:35:24;1.80;;;1.70;;
71288;SDS011;59068;52.502;9.860;2023-05-20T09:37:51;1.47;;;1.37;;
71288;SDS011;59068;52.502;9.860;2023-05-20T09:40:20;2.90;;;1.60;;
71288;SDS011;59068;52.502;9.860;2023-05-20T09:42:49;1.60;;;1.50;;
71288;SDS011;59068;52.502;9.860;2023-05-20T09:45:19;1.63;;;1.50;;
71288;SDS011;59068;52.502;9.860;2023-05-20T09:47:46;2.20;;;1.60;;
71288;SDS011;59068;52.502;9.860;2023-05-20T09:50:12;5.57;;;2.10;;
71288;SDS011;59068;52.502;9.860;2023-05-20T09:52:40;4.27;;;1.40;;
71288;SDS011;59068;52.502;9.860;2023-05-20T09:55:08;3.43;;;1.67;;
71288;SDS011;59068;52.502;9.860;2023-05-20T09:57:39;2.40;;;1.90;;
71288;SDS011;59068;52.502;9.860;2023-05-20T10:00:04;4.23;;;1.93;;
71288;SDS011;59068;52.502;9.860;2023-05-20T10:02:40;2.77;;;2.10;;
71288;SDS011;59068;52.502;9.860;2023-05-20T10:16:19;2.30;;;2.10;;
71288;SDS011;59068;52.502;9.860;2023-05-20T10:22:26;2.53;;;1.70;;
71288;SDS011;59068;52.502;9.860;2023-05-20T10:25:22;1.93;;;1.80;;
71288;SDS011;59068;52.502;9.860;2023-05-20T10:27:49;1.77;;;1.53;;
71288;SDS011;59068;52.502;9.860;2023-05-20T10:30:19;2.17;;;1.60;;
71288;SDS011;59068;52.502;9.860;2023-05-20T10:32:53;1.60;;;1.50;;
71288;SDS011;59068;52.502;9.860;2023-05-20T10:35:26;1.97;;;1.87;;
71288;SDS011;59068;52.502;9.860;2023-05-20T10:40:52;2.73;;;1.73;;
71288;SDS011;59068;52.502;9.860;2023-05-20T10:43:28;2.80;;;1.43;;
71288;SDS011;59068;52.502;9.860;2023-05-20T10:45:54;2.60;;;1.97;;
71288;SDS011;59068;52.502;9.860;2023-05-20T10:48:28;1.90;;;1.80;;
71288;SDS011;59068;52.502;9.860;2023-05-20T10:50:57;3.27;;;2.33;;
71288;SDS011;59068;52.502;9.860;2023-05-20T10:53:25;2.30;;;1.97;;
71288;SDS011;59068;52.502;9.860;2023-05-20T10:55:53;1.90;;;1.80;;
71288;SDS011;59068;52.502;9.860;2023-05-20T10:58:21;1.73;;;1.60;;
71288;SDS011;59068;52.502;9.860;2023-05-20T11:00:53;2.83;;;1.80;;
71288;SDS011;59068;52.502;9.860;2023-05-20T11:03:21;1.97;;;1.60;;
71288;SDS011;59068;52.502;9.860;2023-05-20T11:05:48;2.27;;;1.67;;
71288;SDS011;59068;52.502;9.860;2023-05-20T11:08:14;2.13;;;1.93;;
71288;SDS011;59068;52.502;9.860;2023-05-20T11:10:41;3.13;;;1.50;;
71288;SDS011;59068;52.502;9.860;2023-05-20T11:13:11;1.77;;;1.67;;
71288;SDS011;59068;52.502;9.860;2023-05-20T11:15:39;1.97;;;1.83;;
71288;SDS011;59068;52.502;9.860;2023-05-20T11:18:06;2.00;;;1.80;;
71288;SDS011;59068;52.502;9.860;2023-05-20T11:20:33;2.80;;;1.77;;
71288;SDS011;59068;52.502;9.860;2023-05-20T11:22:59;1.97;;;1.73;;
71288;SDS011;59068;52.502;9.860;2023-05-20T11:25:28;1.87;;;1.60;;
71288;SDS011;59068;52.502;9.860;2023-05-20T11:27:55;1.90;;;1.80;;
71288;SDS011;59068;52.502;9.860;2023-05-20T11:30:21;1.90;;;1.80;;
71288;SDS011;59068;52.502;9.860;2023-05-20T11:32:57;3.30;;;1.50;;
71288;SDS011;59068;52.502;9.860;2023-05-20T11:35:24;1.77;;;1.67;;
71288;SDS011;59068;52.502;9.860;2023-05-20T11:38:01;2.27;;;1.87;;
71288;SDS011;59068;52.502;9.860;2023-05-20T11:40:28;2.83;;;2.00;;
71288;SDS011;59068;52.502;9.860;2023-05-20T11:42:56;2.43;;;1.60;;
71288;SDS011;59068;52.502;9.860;2023-05-20T11:45:23;1.80;;;1.70;;
71288;SDS011;59068;52.502;9.860;2023-05-20T11:50:39;1.90;;;1.80;;
71288;SDS011;59068;52.502;9.860;2023-05-20T11:53:08;1.70;;;1.60;;
71288;SDS011;59068;52.502;9.860;2023-05-20T11:55:48;2.03;;;1.70;;
71288;SDS011;59068;52.502;9.860;2023-05-20T11:58:22;2.47;;;1.80;;
71288;SDS011;59068;52.502;9.860;2023-05-20T12:00:49;2.33;;;1.80;;
71288;SDS011;59068;52.502;9.860;2023-05-20T12:03:15;2.50;;;1.67;;
71288;SDS011;59068;52.502;9.860;2023-05-20T12:05:43;1.77;;;1.67;;
71288;SDS011;59068;52.502;9.860;2023-05-20T12:08:13;1.93;;;1.63;;
71288;SDS011;59068;52.502;9.860;2023-05-20T12:10:39;1.60;;;1.50;;
71288;SDS011;59068;52.502;9.860;2023-05-20T12:13:05;2.33;;;1.53;;
71288;SDS011;59068;52.502;9.860;2023-05-20T12:15:34;2.53;;;1.60;;
71288;SDS011;59068;52.502;9.860;2023-05-20T12:18:01;1.67;;;1.57;;
71288;SDS011;59068;52.502;9.860;2023-05-20T12:20:28;2.27;;;1.70;;
71288;SDS011;59068;52.502;9.860;2023-05-20T12:22:54;3.40;;;1.90;;
71288;SDS011;59068;52.502;9.860;2023-05-20T12:25:22;3.83;;;2.07;;
71288;SDS011;59068;52.502;9.860;2023-05-20T12:27:47;3.20;;;1.90;;
71288;SDS011;59068;52.502;9.860;2023-05-20T12:30:16;3.33;;;1.87;;
71288;SDS011;59068;52.502;9.860;2023-05-20T12:32:44;1.97;;;1.87;;
71288;SDS011;59068;52.502;9.860;2023-05-20T12:35:11;2.13;;;1.93;;
71288;SDS011;59068;52.502;9.860;2023-05-20T12:37:41;3.07;;;1.90;;
71288;SDS011;59068;52.502;9.860;2023-05-20T12:40:09;2.67;;;1.90;;
71288;SDS011;59068;52.502;9.860;2023-05-20T12:42:37;3.53;;;2.67;;
71288;SDS011;59068;52.502;9.860;2023-05-20T12:45:05;2.53;;;2.27;;
71288;SDS011;59068;52.502;9.860;2023-05-20T12:47:32;3.57;;;2.20;;
71288;SDS011;59068;52.502;9.860;2023-05-20T12:50:00;2.20;;;2.00;;
71288;SDS011;59068;52.502;9.860;2023-05-20T12:52:27;2.83;;;2.17;;
71288;SDS011;59068;52.502;9.860;2023-05-20T12:54:54;4.33;;;2.43;;
71288;SDS011;59068;52.502;9.860;2023-05-20T12:57:22;2.93;;;2.40;;
71288;SDS011;59068;52.502;9.860;2023-05-20T12:59:49;2.53;;;2.33;;
71288;SDS011;59068;52.502;9.860;2023-05-20T13:02:15;2.53;;;2.00;;
71288;SDS011;59068;52.502;9.860;2023-05-20T13:04:42;2.37;;;2.03;;
71288;SDS011;59068;52.502;9.860;2023-05-20T13:07:08;3.47;;;2.33;;
71288;SDS011;59068;52.502;9.860;2023-05-20T13:09:35;2.30;;;2.10;;
71288;SDS011;59068;52.502;9.860;2023-05-20T13:12:02;5.73;;;2.13;;
71288;SDS011;59068;52.502;9.860;2023-05-20T13:14:28;2.67;;;2.47;;
71288;SDS011;59068;52.502;9.860;2023-05-20T13:16:55;4.07;;;2.30;;
71288;SDS011;59068;52.502;9.860;2023-05-20T13:19:21;2.37;;;2.10;;
71288;SDS011;59068;52.502;9.860;2023-05-20T13:21:48;2.63;;;2.43;;
71288;SDS011;59068;52.502;9.860;2023-05-20T13:24:20;2.60;;;2.40;;
71288;SDS011;59068;52.502;9.860;2023-05-20T13:26:46;2.50;;;2.30;;
71288;SDS011;59068;52.502;9.860;2023-05-20T13:29:12;3.27;;;2.40;;
71288;SDS011;59068;52.502;9.860;2023-05-20T13:31:38;3.77;;;2.47;;
71288;SDS011;59068;52.502;9.860;2023-05-20T13:34:07;2.43;;;2.10;;
71288;SDS011;59068;52.502;9.860;2023-05-20T13:36:32;2.13;;;2.03;;
71288;SDS011;59068;52.502;9.860;2023-05-20T13:38:59;2.40;;;2.20;;
71288;SDS011;59068;52.502;9.860;2023-05-20T13:41:25;3.00;;;2.10;;
71288;SDS011;59068;52.502;9.860;2023-05-20T13:43:51;3.67;;;2.40;;
71288;SDS011;59068;52.502;9.860;2023-05-20T13:46:18;4.07;;;2.30;;
71288;SDS011;59068;52.502;9.860;2023-05-20T13:48:43;2.43;;;2.23;;
71288;SDS011;59068;52.502;9.860;2023-05-20T13:51:09;2.60;;;2.00;;
71288;SDS011;59068;52.502;9.860;2023-05-20T13:53:37;2.30;;;2.10;;
71288;SDS011;59068;52.502;9.860;2023-05-20T13:56:03;4.70;;;2.53;;
71288;SDS011;59068;52.502;9.860;2023-05-20T13:58:30;2.87;;;2.23;;
71288;SDS011;59068;52.502;9.860;2023-05-20T14:00:57;2.30;;;2.20;;
71288;SDS011;59068;52.502;9.860;2023-05-20T14:03:23;2.33;;;2.10;;
71288;SDS011;59068;52.502;9.860;2023-05-20T14:05:50;3.47;;;2.40;;
71288;SDS011;59068;52.502;9.860;2023-05-20T14:08:17;2.87;;;2.50;;
71288;SDS011;59068;52.502;9.860;2023-05-20T14:10:43;3.17;;;2.60;;
71288;SDS011;59068;52.502;9.860;2023-05-20T14:13:10;2.90;;;2.60;;
71288;SDS011;59068;52.502;9.860;2023-05-20T14:15:37;3.13;;;2.83;;
71288;SDS011;59068;52.502;9.860;2023-05-20T14:18:04;2.80;;;2.60;;
71288;SDS011;59068;52.502;9.860;2023-05-20T14:20:30;2.47;;;2.20;;
71288;SDS011;59068;52.502;9.860;2023-05-20T14:22:57;2.60;;;2.40;;
71288;SDS011;59068;52.502;9.860;2023-05-20T14:25:26;2.83;;;2.40;;
71288;SDS011;59068;52.502;9.860;2023-05-20T14:27:53;3.20;;;2.90;;
71288;SDS011;59068;52.502;9.860;2023-05-20T14:30:19;2.87;;;2.60;;
71288;SDS011;59068;52.502;9.860;2023-05-20T14:32:46;3.00;;;2.70;;
71288;SDS011;59068;52.502;9.860;2023-05-20T14:35:13;3.90;;;2.73;;
71288;SDS011;59068;52.502;9.860;2023-05-20T14:37:41;2.90;;;2.70;;
71288;SDS011;59068;52.502;9.860;2023-05-20T14:40:08;2.87;;;2.57;;
71288;SDS011;59068;52.502;9.860;2023-05-20T14:42:35;2.40;;;2.20;;
71288;SDS011;59068;52.502;9.860;2023-05-20T14:45:01;2.97;;;2.63;;
71288;SDS011;59068;52.502;9.860;2023-05-20T14:47:29;2.87;;;2.53;;
71288;SDS011;59068;52.502;9.860;2023-05-20T14:49:56;3.47;;;2.37;;
71288;SDS011;59068;52.502;9.860;2023-05-20T14:52:23;3.10;;;2.53;;
71288;SDS011;59068;52.502;9.860;2023-05-20T14:54:48;3.13;;;2.50;;
71288;SDS011;59068;52.502;9.860;2023-05-20T14:57:14;4.33;;;3.10;;
71288;SDS011;59068;52.502;9.860;2023-05-20T14:59:41;3.70;;;2.90;;
71288;SDS011;59068;52.502;9.860;2023-05-20T15:02:08;3.13;;;2.93;;
71288;SDS011;59068;52.502;9.860;2023-05-20T15:04:35;3.10;;;2.90;;
71288;SDS011;59068;52.502;9.860;2023-05-20T15:07:02;3.07;;;2.77;;
71288;SDS011;59068;52.502;9.860;2023-05-20T15:09:29;3.00;;;2.70;;
71288;SDS011;59068;52.502;9.860;2023-05-20T15:11:56;3.23;;;2.97;;
71288;SDS011;59068;52.502;9.860;2023-05-20T15:14:22;4.37;;;2.87;;